Time;durP1;ratioP1;P1;durP2;ratioP2;P2;SDS_P1;SDS_P2;PMS_P1;PMS_P2;Temp;Humidity;BMP_temperature;BMP_pressure;BME280_temperature;BME280_humidity;BME280_pressure;Samples;Min_cycle;Max_cycle;Signal;HPM_P1;HPM_P2
2022/03/12 00:00:48;;;;;;;19.70;8.70;;;;;;;-3.88;47.40;100108.53;218834;1277;23985;-68
2022/03/12 00:05:54;;;;;;;19.20;9.10;;;;;;;-3.93;47.38;100105.60;218882;1277;26726;-67
2022/03/12 00:11:00;;;;;;;17.90;8.90;;;;;;;-4.03;47.36;100105.06;219637;1276;26840;-67
2022/03/12 00:16:04;;;;;;;21.60;9.80;;;;;;;-4.12;47.31;100101.61;218640;1277;26432;-68
2022/03/12 00:21:07;;;;;;;19.70;9.10;;;;;;;-4.18;47.45;100100.11;218925;1277;22596;-68
2022/03/12 00:26:15;;;;;;;17.00;8.10;;;;;;;-4.21;47.70;100099.23;218820;1277;25589;-67
2022/03/12 00:31:29;;;;;;;18.30;9.20;;;;;;;-4.15;47.86;100104.30;218763;1277;25522;-68
2022/03/12 00:36:48;;;;;;;18.00;8.40;;;;;;;-4.06;48.19;100103.61;218856;1276;25427;-68
2022/03/12 00:42:23;;;;;;;16.30;7.60;;;;;;;-4.02;48.29;100100.59;218562;1277;25377;-68
2022/03/12 00:47:27;;;;;;;20.30;8.80;;;;;;;-4.09;48.28;100097.98;218682;1277;22683;-68
2022/03/12 00:52:30;;;;;;;15.40;7.30;;;;;;;-4.16;48.49;100095.20;218660;1277;22846;-67
2022/03/12 00:57:34;;;;;;;15.90;7.30;;;;;;;-4.20;48.48;100093.73;218477;1276;22692;-68
2022/03/12 01:02:38;;;;;;;17.90;8.60;;;;;;;-4.27;48.52;100100.98;218498;1275;22776;-68
2022/03/12 01:07:41;;;;;;;19.30;8.80;;;;;;;-4.36;48.78;100095.58;218626;1277;22682;-69
2022/03/12 01:12:44;;;;;;;18.40;7.70;;;;;;;-4.40;48.86;100097.17;218801;1277;22656;-68
2022/03/12 01:17:46;;;;;;;22.30;9.30;;;;;;;-4.44;48.68;100100.69;218750;1275;24306;-67
2022/03/12 01:22:55;;;;;;;18.90;8.50;;;;;;;-4.50;48.41;100100.27;218592;1277;24693;-67
2022/03/12 01:28:18;;;;;;;15.80;7.50;;;;;;;-4.63;48.20;100100.03;218637;1277;22980;-68
2022/03/12 01:33:29;;;;;;;17.90;8.60;;;;;;;-4.78;48.17;100101.69;219029;1276;22580;-68
2022/03/12 01:38:51;;;;;;;16.70;8.10;;;;;;;-4.89;48.36;100102.98;218650;1277;22622;-68
2022/03/12 01:43:57;;;;;;;22.40;10.10;;;;;;;-4.87;48.52;100102.30;218860;1277;24241;-68
2022/03/12 01:49:20;;;;;;;;;;;;;;;;;;;;;
2022/03/12 01:54:51;;;;;;;20.80;9.40;;;;;;;-4.68;48.20;100099.02;218482;1276;22706;-68
2022/03/12 02:13:18;;;;;;;18.90;9.00;;;;;;;-4.71;48.41;100079.79;218745;1276;26340;-68
2022/03/12 02:19:19;;;;;;;19.80;10.00;;;;;;;-4.63;48.58;100084.86;218455;1276;25641;-67
2022/03/12 02:24:32;;;;;;;22.00;10.50;;;;;;;-4.59;49.08;100079.58;218509;1277;22718;-68
2022/03/12 02:31:19;;;;;;;20.90;9.50;;;;;;;-4.58;48.94;100081.90;218166;1276;22665;-67
2022/03/12 02:36:48;;;;;;;17.10;8.40;;;;;;;-4.68;49.03;100087.41;218589;1276;25921;-68
2022/03/12 02:41:56;;;;;;;;;;;;;;;-4.72;48.83;100086.67;219077;1277;22569;-67
2022/03/12 02:47:20;;;;;;;16.30;7.50;;;;;;;-4.84;48.91;100083.46;218723;1276;23964;-68
2022/03/12 02:52:54;;;;;;;20.20;9.00;;;;;;;-4.91;49.20;100082.11;218859;1276;22667;-68
2022/03/12 02:57:57;;;;;;;17.30;9.00;;;;;;;-4.95;49.24;100085.84;218842;1277;22784;-68
2022/03/12 03:03:07;;;;;;;19.50;10.50;;;;;;;-4.96;49.36;100084.56;218562;1276;22795;-68
2022/03/12 03:09:05;;;;;;;21.60;9.50;;;;;;;-4.95;49.45;100081.86;218702;1277;25699;-68
2022/03/12 03:14:51;;;;;;;21.70;9.50;;;;;;;-4.89;49.35;100088.77;218570;1276;22577;-68
2022/03/12 03:26:46;;;;;;;20.70;8.10;;;;;;;-4.84;49.45;100093.75;218749;1276;24237;-68
2022/03/12 03:31:50;;;;;;;22.50;9.20;;;;;;;-4.85;49.82;100094.73;218588;1276;24479;-66
2022/03/12 03:37:16;;;;;;;21.00;9.40;;;;;;;-4.89;49.76;100087.86;218868;1277;26379;-66
2022/03/12 03:43:21;;;;;;;18.80;9.10;;;;;;;-4.91;49.67;100085.15;218559;1275;22718;-68
2022/03/12 03:48:46;;;;;;;20.30;8.70;;;;;;;-4.89;49.50;100087.02;218744;1277;22858;-68
2022/03/12 03:54:10;;;;;;;19.70;8.10;;;;;;;-4.89;49.47;100086.83;218994;1276;24081;-67
2022/03/12 03:59:12;;;;;;;17.20;8.20;;;;;;;-4.85;49.59;100091.75;218741;1276;23427;-68
2022/03/12 04:04:15;;;;;;;16.60;8.30;;;;;;;-4.86;49.54;100093.48;218707;1275;24076;-68
2022/03/12 04:09:17;;;;;;;17.50;8.70;;;;;;;-4.95;49.55;100097.35;218663;1277;24231;-68
2022/03/12 04:14:20;;;;;;;24.80;8.80;;;;;;;-5.04;49.76;100100.44;218612;1276;22660;-68
2022/03/12 04:19:42;;;;;;;16.90;8.80;;;;;;;-5.09;50.20;100103.11;218800;1275;25734;-68
2022/03/12 04:24:51;;;;;;;20.60;8.90;;;;;;;-5.15;50.69;100110.29;218464;1277;22835;-68
2022/03/12 04:30:07;;;;;;;16.50;8.80;;;;;;;-5.17;51.15;100111.03;218845;1277;22737;-69
2022/03/12 04:35:32;;;;;;;16.80;8.20;;;;;;;-5.23;51.32;100106.41;218945;1276;22747;-67
2022/03/12 04:40:50;;;;;;;18.50;9.50;;;;;;;-5.29;51.67;100111.55;218478;1276;22581;-68
2022/03/12 04:46:02;;;;;;;18.60;9.10;;;;;;;-5.37;51.94;100111.11;218977;1277;24373;-67
2022/03/12 04:51:07;;;;;;;19.40;9.60;;;;;;;-5.42;52.42;100110.52;218863;1276;24279;-68
2022/03/12 04:56:23;;;;;;;24.10;10.40;;;;;;;-5.49;52.60;100110.04;218491;1277;23322;-68
2022/03/12 05:01:33;;;;;;;20.00;10.50;;;;;;;-5.52;52.87;100121.83;218907;1275;22857;-68
2022/03/12 05:06:39;;;;;;;21.20;10.50;;;;;;;-5.49;53.17;100115.77;218852;1277;22538;-68
2022/03/12 05:12:04;;;;;;;23.40;10.20;;;;;;;-5.49;52.84;100114.02;218613;1276;22618;-68
2022/03/12 05:17:14;;;;;;;25.30;11.50;;;;;;;-5.51;52.38;100113.48;219082;1276;26074;-68
2022/03/12 05:22:16;;;;;;;30.90;13.70;;;;;;;-5.52;52.36;100115.49;218786;1277;24779;-68
2022/03/12 05:27:20;;;;;;;32.70;14.40;;;;;;;-5.48;52.46;100113.34;218642;1274;22883;-68
2022/03/12 05:33:05;;;;;;;39.50;16.90;;;;;;;-5.39;52.41;100115.31;218712;1276;22721;-68
2022/03/12 05:38:18;;;;;;;44.30;17.60;;;;;;;-5.31;52.26;100106.98;218652;1276;24476;-67
2022/03/12 05:43:39;;;;;;;42.80;18.20;;;;;;;-5.24;52.17;100104.94;218598;1276;24651;-66
2022/03/12 05:49:52;;;;;;;47.10;20.70;;;;;;;-5.15;52.01;100103.10;218215;1276;22860;-68
2022/03/12 05:55:35;;;;;;;45.10;19.60;;;;;;;-5.04;52.01;100117.39;218670;1276;24672;-66
2022/03/12 06:00:57;;;;;;;46.30;19.70;;;;;;;-4.87;52.15;100123.04;218727;1276;22690;-67
2022/03/12 06:07:11;;;;;;;49.70;18.00;;;;;;;-4.68;52.70;100121.12;218461;1276;25250;-67
2022/03/12 06:12:17;;;;;;;37.20;15.30;;;;;;;-4.49;52.77;100113.42;218767;1277;22783;-67
2022/03/12 06:18:08;;;;;;;32.60;14.90;;;;;;;-4.28;52.39;100113.52;218632;1277;26143;-68
2022/03/12 06:23:58;;;;;;;43.40;15.70;;;;;;;-4.08;51.89;100113.98;218598;1276;24364;-68
2022/03/12 06:29:32;;;;;;;38.80;15.20;;;;;;;-3.91;51.73;100107.96;218689;1276;22789;-67
2022/03/12 06:40:00;;;;;;;23.80;10.70;;;;;;;-3.51;51.03;100109.73;218620;1275;25575;-68
2022/03/12 06:45:32;;;;;;;17.00;9.30;;;;;;;-3.28;50.48;100113.92;218657;1276;22707;-67
2022/03/12 06:51:04;;;;;;;22.20;9.70;;;;;;;-3.03;49.97;100109.80;218797;1276;24469;-67
2022/03/12 06:56:23;;;;;;;;;;;;;;;;;;;;;
2022/03/12 07:01:29;;;;;;;27.40;10.10;;;;;;;-2.52;49.36;100113.24;218883;1277;22945;-67
2022/03/12 07:06:37;;;;;;;23.90;11.50;;;;;;;-2.28;48.74;100114.26;218695;1275;22820;-68
2022/03/12 07:11:39;;;;;;;28.80;12.50;;;;;;;-2.10;48.10;100109.67;218871;1275;24158;-67
2022/03/12 07:16:44;;;;;;;30.10;12.60;;;;;;;-1.93;47.61;100111.02;218946;1276;22575;-67
2022/03/12 07:21:58;;;;;;;23.10;11.40;;;;;;;-1.70;47.85;100110.74;218384;1276;535067;-67
2022/03/12 07:27:09;;;;;;;30.80;13.40;;;;;;;-1.48;47.20;100109.09;218546;1275;25376;-66
2022/03/12 07:32:12;;;;;;;25.10;11.50;;;;;;;-1.23;47.18;100114.55;218762;1276;25442;-67
2022/03/12 07:37:47;;;;;;;24.20;11.30;;;;;;;-0.97;46.80;100115.84;218603;1276;25563;-66
2022/03/12 07:43:00;;;;;;;23.00;12.30;;;;;;;-0.71;46.41;100113.21;218693;1277;24768;-68
2022/03/12 07:48:13;;;;;;;21.30;11.00;;;;;;;-0.47;45.90;100112.11;218429;1277;22648;-67
2022/03/12 07:53:59;;;;;;;20.00;10.30;;;;;;;-0.25;45.49;100110.71;218396;1276;22847;-67
2022/03/12 07:59:21;;;;;;;19.50;9.70;;;;;;;-0.00;44.84;100114.93;218320;1274;24247;-68
2022/03/12 08:04:26;;;;;;;14.20;7.70;;;;;;;0.23;44.48;100114.73;218263;1274;22538;-68
2022/03/12 08:09:56;;;;;;;24.00;12.40;;;;;;;0.53;44.08;100118.09;218288;1274;23037;-69
2022/03/12 08:15:19;;;;;;;18.70;8.50;;;;;;;0.75;42.95;100113.86;218521;1274;22554;-70
2022/03/12 08:20:56;;;;;;;20.30;8.60;;;;;;;0.86;42.69;100115.98;218326;1277;23474;-69
2022/03/12 08:26:20;;;;;;;16.80;8.10;;;;;;;1.01;42.82;100109.71;217858;1274;22547;-69
2022/03/12 08:31:27;;;;;;;23.40;10.20;;;;;;;1.22;41.75;100112.56;218011;1276;24235;-69
2022/03/12 08:36:48;;;;;;;21.90;10.40;;;;;;;1.36;41.39;100113.86;218336;1274;24832;-69
2022/03/12 08:41:51;;;;;;;17.80;9.00;;;;;;;1.51;42.05;100113.83;218319;1276;24355;-70
2022/03/12 08:46:54;;;;;;;18.40;9.60;;;;;;;1.76;41.42;100111.98;218446;1274;22594;-69
2022/03/12 08:51:59;;;;;;;19.70;9.60;;;;;;;1.98;40.92;100105.42;218411;1276;22713;-70
2022/03/12 08:57:05;;;;;;;24.00;10.40;;;;;;;2.12;40.28;100101.77;218680;1274;24813;-69
2022/03/12 09:02:13;;;;;;;20.20;8.70;;;;;;;2.21;39.80;100097.11;218922;1274;24757;-69
2022/03/12 09:07:23;;;;;;;17.20;8.90;;;;;;;2.32;39.86;100088.86;218510;1274;22898;-69
2022/03/12 09:12:26;;;;;;;18.60;8.90;;;;;;;2.52;39.57;100088.88;218306;1277;24417;-69
2022/03/12 09:17:30;;;;;;;17.80;8.90;;;;;;;2.75;39.60;100089.56;218689;1274;24310;-70
2022/03/12 09:22:35;;;;;;;19.00;8.90;;;;;;;2.94;39.26;100083.70;218560;1274;24347;-69
2022/03/12 09:27:44;;;;;;;16.30;8.60;;;;;;;3.17;39.08;100079.66;218539;1274;22778;-69
2022/03/12 09:32:55;;;;;;;13.00;7.40;;;;;;;3.38;38.63;100076.17;218300;1276;24249;-68
2022/03/12 09:37:59;;;;;;;16.70;8.80;;;;;;;3.47;37.67;100072.98;218512;1274;22726;-69
2022/03/12 09:43:04;;;;;;;16.00;8.60;;;;;;;3.59;37.66;100069.14;219108;1274;22691;-69
2022/03/12 09:48:09;;;;;;;16.00;8.10;;;;;;;3.67;37.66;100063.67;220545;1276;24252;-69
2022/03/12 09:53:12;;;;;;;16.80;8.30;;;;;;;3.85;37.74;100064.70;218720;1277;22570;-69
2022/03/12 09:58:28;;;;;;;16.40;8.10;;;;;;;4.02;37.40;100058.97;218308;1277;22592;-70
2022/03/12 10:03:30;;;;;;;16.20;8.00;;;;;;;4.16;37.12;100061.24;218940;1274;25550;-69
2022/03/12 10:08:57;;;;;;;15.70;8.50;;;;;;;4.36;36.66;100059.23;218545;1274;22580;-69
2022/03/12 10:14:24;;;;;;;14.80;8.60;;;;;;;4.41;35.42;100056.02;218541;1274;22552;-68
2022/03/12 10:20:34;;;;;;;;;;;;;;;;;;;;;
2022/03/12 10:26:07;;;;;;;14.60;7.30;;;;;;;4.66;36.09;100042.24;218579;1274;25765;-70
2022/03/12 10:31:18;;;;;;;15.80;7.00;;;;;;;4.91;36.10;100037.48;218044;1277;22553;-69
2022/03/12 10:36:21;;;;;;;13.40;6.50;;;;;;;5.13;35.50;100033.65;218513;1276;22608;-69
2022/03/12 10:41:30;;;;;;;13.60;7.10;;;;;;;5.30;35.26;100026.39;218434;1274;22583;-69
2022/03/12 10:46:35;;;;;;;12.20;6.60;;;;;;;5.45;35.05;100016.27;218519;1274;26488;-69
2022/03/12 10:51:41;;;;;;;11.10;6.90;;;;;;;5.59;35.10;100016.98;222037;1276;22557;-67
2022/03/12 10:56:49;;;;;;;14.70;7.40;;;;;;;5.79;34.97;100009.00;218121;1277;22577;-70
2022/03/12 11:01:55;;;;;;;13.20;7.40;;;;;;;5.94;34.89;100001.66;219691;1277;22486;-69
2022/03/12 11:07:04;;;;;;;13.30;6.60;;;;;;;6.09;34.74;99996.31;218023;1274;22797;-69
2022/03/12 11:12:35;;;;;;;12.60;5.90;;;;;;;6.23;34.12;99989.84;218435;1276;22624;-72
2022/03/12 11:17:46;;;;;;;11.50;6.40;;;;;;;6.37;34.21;99985.27;220982;1275;25362;-69
2022/03/12 11:23:11;;;;;;;9.80;6.40;;;;;;;6.41;33.21;99978.97;218734;1275;24248;-69
2022/03/12 11:28:18;;;;;;;11.60;6.10;;;;;;;6.46;33.55;99975.20;218302;1274;22780;-69
2022/03/12 11:33:35;;;;;;;11.00;5.80;;;;;;;6.64;33.40;99973.89;218676;1274;22676;-69
2022/03/12 11:38:55;;;;;;;12.60;5.90;;;;;;;6.81;33.16;99975.69;218395;1274;22537;-70
2022/03/12 11:44:01;;;;;;;10.60;5.70;;;;;;;6.92;32.24;99974.33;218359;1274;22990;-70
2022/03/12 11:49:04;;;;;;;10.10;5.80;;;;;;;6.74;31.55;99964.16;218695;1274;22560;-69
2022/03/12 11:54:07;;;;;;;9.00;5.60;;;;;;;6.78;31.95;99960.13;218310;1277;22628;-68
2022/03/12 11:59:13;;;;;;;12.60;6.90;;;;;;;6.92;31.43;99958.09;218083;1276;22582;-68
2022/03/12 12:04:36;;;;;;;10.60;5.80;;;;;;;7.03;31.47;99947.66;218242;1277;22549;-69
2022/03/12 12:09:38;;;;;;;8.40;5.00;;;;;;;7.20;31.51;99940.89;218425;1276;22636;-70
2022/03/12 12:14:42;;;;;;;9.60;4.80;;;;;;;7.40;31.05;99931.09;218579;1277;22525;-69
2022/03/12 12:19:44;;;;;;;7.60;4.30;;;;;;;7.50;29.55;99926.84;218955;1276;22545;-70
2022/03/12 12:24:52;;;;;;;7.80;4.90;;;;;;;7.51;29.80;99919.65;218382;1276;22565;-70
2022/03/12 12:29:58;;;;;;;7.60;5.00;;;;;;;7.56;29.12;99913.66;218559;1277;22595;-70
2022/03/12 12:35:04;;;;;;;7.80;4.90;;;;;;;7.56;29.71;99906.20;218603;1277;23471;-70
2022/03/12 12:40:20;;;;;;;6.20;4.10;;;;;;;7.71;29.43;99902.98;218484;1277;22745;-70
2022/03/12 12:46:08;;;;;;;10.30;5.10;;;;;;;7.82;29.54;99899.84;218700;1276;22697;-69
2022/03/12 12:52:17;;;;;;;8.40;4.60;;;;;;;7.82;29.01;99894.88;220393;1277;22712;-69
2022/03/12 12:57:54;;;;;;;8.50;4.30;;;;;;;7.85;28.95;99889.55;218482;1277;22804;-70
2022/03/12 13:03:05;;;;;;;7.00;4.00;;;;;;;7.94;28.93;99890.48;218287;1277;22540;-70
2022/03/12 13:08:12;;;;;;;9.50;3.70;;;;;;;7.96;28.45;99881.34;218565;1277;22569;-69
2022/03/12 13:13:31;;;;;;;6.50;4.40;;;;;;;8.04;28.01;99875.16;218576;1275;22863;-70
2022/03/12 13:18:40;;;;;;;6.70;4.00;;;;;;;7.99;27.41;99872.05;218284;1276;22564;-69
2022/03/12 13:23:47;;;;;;;7.20;4.10;;;;;;;8.02;28.13;99871.40;218733;1277;22710;-70
2022/03/12 13:28:55;;;;;;;6.60;4.40;;;;;;;8.09;27.90;99870.74;218435;1276;25954;-69
2022/03/12 13:39:36;;;;;;;6.10;4.00;;;;;;;8.22;27.26;99855.40;220223;1276;22549;-69
2022/03/12 13:44:46;;;;;;;6.70;3.90;;;;;;;8.07;27.04;99845.95;218665;1277;22812;-70
2022/03/12 13:50:34;;;;;;;7.00;4.10;;;;;;;8.08;27.57;99842.23;220403;1277;25533;-71
2022/03/12 14:01:45;;;;;;;9.10;4.80;;;;;;;8.12;27.75;99835.40;220261;1277;24149;-70
2022/03/12 14:06:48;;;;;;;6.60;4.20;;;;;;;8.12;27.51;99833.80;219108;1277;24400;-69
2022/03/12 14:11:56;;;;;;;7.40;4.90;;;;;;;8.10;27.13;99830.95;218538;1276;22636;-70
2022/03/12 14:17:02;;;;;;;8.80;4.60;;;;;;;8.12;27.45;99825.73;220608;1277;25639;-70
2022/03/12 14:22:15;;;;;;;7.70;4.60;;;;;;;8.09;27.37;99823.23;219719;1277;24408;-69
2022/03/12 14:27:28;;;;;;;7.10;4.50;;;;;;;8.10;27.78;99822.84;218575;1274;24325;-70
2022/03/12 14:32:31;;;;;;;9.50;5.40;;;;;;;8.05;27.21;99821.48;218700;1274;25297;-69
2022/03/12 14:37:37;;;;;;;9.30;5.20;;;;;;;7.92;27.24;99819.11;218616;1277;26663;-70
2022/03/12 14:42:40;;;;;;;7.80;4.90;;;;;;;7.82;27.27;99813.57;219185;1274;24249;-70
2022/03/12 14:47:44;;;;;;;9.00;5.70;;;;;;;7.68;27.11;99814.48;218743;1277;24868;-69
2022/03/12 14:52:56;;;;;;;10.50;6.00;;;;;;;7.54;27.41;99807.77;218727;1277;24182;-69
2022/03/12 14:57:58;;;;;;;11.70;6.00;;;;;;;7.39;27.29;99799.33;218758;1277;25257;-70
2022/03/12 15:03:06;;;;;;;11.60;6.00;;;;;;;7.27;27.37;99799.13;218674;1277;22997;-69
2022/03/12 15:08:11;;;;;;;10.40;5.90;;;;;;;7.19;27.71;99799.95;218862;1277;22707;-69
2022/03/12 15:13:23;;;;;;;9.90;5.90;;;;;;;7.05;27.23;99794.86;219059;1277;25377;-70
2022/03/12 15:18:30;;;;;;;10.40;6.10;;;;;;;6.87;27.28;99794.39;218587;1277;24278;-69
2022/03/12 15:23:39;;;;;;;10.80;6.20;;;;;;;6.72;27.13;99791.49;218698;1277;25475;-70
2022/03/12 15:28:49;;;;;;;13.80;7.00;;;;;;;6.54;27.54;99792.80;218693;1277;24251;-70
2022/03/12 15:33:56;;;;;;;15.50;7.40;;;;;;;6.38;27.96;99796.38;218964;1277;24274;-70
2022/03/12 15:39:00;;;;;;;14.10;7.30;;;;;;;6.24;28.27;99787.63;218421;1277;24330;-70
2022/03/12 15:44:03;;;;;;;13.00;6.80;;;;;;;6.10;28.72;99785.64;218443;1277;23788;-70
2022/03/12 15:49:18;;;;;;;11.90;6.90;;;;;;;5.93;28.89;99781.17;220422;1277;24372;-70
2022/03/12 15:54:21;;;;;;;14.10;7.40;;;;;;;5.76;29.10;99781.71;218589;1277;22710;-69
2022/03/12 15:59:24;;;;;;;15.40;7.40;;;;;;;5.59;29.30;99779.60;218343;1277;22563;-69
2022/03/12 16:04:28;;;;;;;17.90;8.80;;;;;;;5.42;29.62;99781.34;218489;1277;24252;-70
2022/03/12 16:09:30;;;;;;;15.10;8.40;;;;;;;5.27;29.88;99786.87;218321;1277;22610;-69
2022/03/12 16:14:35;;;;;;;17.40;9.00;;;;;;;5.09;30.09;99785.83;218524;1278;22557;-70
2022/03/12 16:19:45;;;;;;;13.40;8.00;;;;;;;4.88;30.25;99784.77;220383;1277;24387;-70
2022/03/12 16:25:16;;;;;;;16.10;8.00;;;;;;;4.65;30.53;99780.29;218527;1277;22577;-69
2022/03/12 16:30:24;;;;;;;15.60;8.40;;;;;;;4.45;30.63;99781.78;218594;1277;24335;-70
2022/03/12 16:35:32;;;;;;;20.10;9.60;;;;;;;4.23;30.90;99777.05;218454;1277;22571;-70
2022/03/12 16:40:37;;;;;;;22.90;10.20;;;;;;;4.00;31.21;99779.27;218825;1276;23074;-70
2022/03/12 16:45:46;;;;;;;20.60;10.80;;;;;;;3.77;31.18;99779.38;218699;1277;22563;-70
2022/03/12 16:50:58;;;;;;;21.00;10.50;;;;;;;3.53;31.35;99777.80;218643;1277;25262;-70
2022/03/12 16:56:00;;;;;;;25.30;11.40;;;;;;;3.32;31.53;99774.02;219984;1277;26474;-70
2022/03/12 17:01:03;;;;;;;24.40;12.80;;;;;;;3.11;31.85;99770.27;220313;1277;22680;-70
2022/03/12 17:06:06;;;;;;;22.50;12.40;;;;;;;2.88;32.01;99767.92;220550;1277;22559;-70
2022/03/12 17:11:13;;;;;;;23.10;11.30;;;;;;;2.70;32.07;99772.38;218589;1277;22573;-70
2022/03/12 17:16:19;;;;;;;23.20;11.80;;;;;;;2.54;32.28;99770.34;218537;1277;22563;-70
2022/03/12 17:21:33;;;;;;;30.30;12.60;;;;;;;2.37;32.48;99775.62;218861;1276;22632;-69
2022/03/12 17:26:40;;;;;;;28.00;12.60;;;;;;;2.20;32.82;99775.27;218591;1277;22577;-70
2022/03/12 17:31:48;;;;;;;32.40;14.10;;;;;;;2.06;33.03;99772.44;219766;1277;22619;-70
2022/03/12 17:37:01;;;;;;;31.30;14.80;;;;;;;1.89;33.84;99773.94;220397;1277;22726;-70
2022/03/12 17:42:04;;;;;;;37.40;16.10;;;;;;;1.71;33.89;99775.45;218808;1276;23996;-70
2022/03/12 17:47:09;;;;;;;43.20;17.20;;;;;;;1.55;33.85;99773.05;218502;1277;24714;-69
2022/03/12 17:52:15;;;;;;;36.50;17.80;;;;;;;1.42;34.42;99772.24;218517;1275;23839;-70
2022/03/12 17:57:20;;;;;;;32.90;16.70;;;;;;;1.30;34.08;99770.26;220524;1275;22646;-69
2022/03/12 18:02:23;;;;;;;43.00;17.10;;;;;;;1.24;34.57;99768.06;218707;1275;22563;-69
2022/03/12 18:07:26;;;;;;;38.20;19.00;;;;;;;1.27;35.16;99764.16;220374;1275;22694;-70
2022/03/12 18:12:28;;;;;;;57.30;26.80;;;;;;;1.30;35.49;99769.11;218998;1277;25327;-70
2022/03/12 18:17:35;;;;;;;65.20;30.60;;;;;;;1.26;35.75;99767.58;218703;1277;24250;-70
2022/03/12 18:22:45;;;;;;;72.20;36.50;;;;;;;1.21;35.71;99763.55;220516;1276;22579;-71
2022/03/12 18:27:52;;;;;;;83.40;37.00;;;;;;;1.16;35.72;99770.17;218847;1277;24507;-69
2022/03/12 18:32:57;;;;;;;92.60;43.30;;;;;;;1.14;35.92;99774.67;218850;1277;22543;-69
2022/03/12 18:37:59;;;;;;;87.20;40.80;;;;;;;1.09;35.99;99776.57;218887;1277;22560;-69
2022/03/12 18:43:02;;;;;;;78.60;38.50;;;;;;;1.01;36.05;99774.66;218843;1277;22631;-69
2022/03/12 18:48:06;;;;;;;77.30;37.90;;;;;;;0.96;36.41;99774.73;219095;1277;22570;-69
2022/03/12 18:53:08;;;;;;;85.30;38.40;;;;;;;0.90;36.53;99781.30;218737;1275;22634;-69
2022/03/12 18:58:14;;;;;;;83.00;38.20;;;;;;;0.76;36.78;99776.79;218924;1275;22852;-69
2022/03/12 19:03:26;;;;;;;80.00;37.00;;;;;;;0.55;36.81;99775.84;218552;1276;22541;-69
2022/03/12 19:08:49;;;;;;;84.60;38.40;;;;;;;0.30;37.44;99784.27;218574;1276;22734;-70
2022/03/12 19:13:55;;;;;;;90.30;39.40;;;;;;;0.07;38.41;99784.80;220080;1277;22537;-68
2022/03/12 19:19:10;;;;;;;99.20;40.40;;;;;;;-0.14;39.28;99788.70;218740;1277;22569;-69
2022/03/12 19:24:15;;;;;;;135.40;54.80;;;;;;;-0.37;39.76;99785.42;217914;1275;1184292;-70
2022/03/12 19:29:22;;;;;;;129.60;50.50;;;;;;;-0.56;40.04;99785.65;218581;1277;22550;-69
2022/03/12 19:34:25;;;;;;;100.40;45.10;;;;;;;-0.68;39.59;99783.85;218987;1276;24321;-70
2022/03/12 19:39:44;;;;;;;110.70;45.40;;;;;;;-0.77;39.24;99783.70;218744;1276;22731;-69
2022/03/12 19:45:00;;;;;;;113.60;46.20;;;;;;;-0.82;39.21;99786.48;219334;1276;24260;-69
2022/03/12 19:50:06;;;;;;;106.80;46.80;;;;;;;-0.87;39.18;99785.27;218677;1277;24449;-70
2022/03/12 19:55:15;;;;;;;110.80;49.80;;;;;;;-0.90;39.18;99782.77;218657;1276;24301;-69
2022/03/12 20:00:21;;;;;;;114.70;48.40;;;;;;;-0.92;39.29;99779.35;218793;1277;22695;-69
2022/03/12 20:05:24;;;;;;;112.30;48.00;;;;;;;-0.94;39.20;99780.17;218539;1275;22634;-71
2022/03/12 20:10:27;;;;;;;101.10;46.80;;;;;;;-0.98;39.12;99780.80;220530;1276;25165;-70
2022/03/12 20:15:30;;;;;;;136.70;58.30;;;;;;;-0.99;39.38;99777.70;220606;1276;24238;-69
2022/03/12 20:20:34;;;;;;;180.90;73.30;;;;;;;-1.05;40.67;99779.30;218314;1276;24259;-70
2022/03/12 20:25:39;;;;;;;210.50;86.90;;;;;;;-1.12;41.68;99781.01;218918;1277;23895;-71
2022/03/12 20:30:49;;;;;;;202.90;79.50;;;;;;;-1.21;42.08;99783.11;220393;1277;22542;-70
2022/03/12 20:35:52;;;;;;;183.60;77.20;;;;;;;-1.30;42.35;99779.98;218802;1277;24120;-69
2022/03/12 20:40:59;;;;;;;182.50;72.20;;;;;;;-1.38;42.45;99779.00;218745;1277;22632;-69
2022/03/12 20:46:01;;;;;;;172.00;67.80;;;;;;;-1.44;42.04;99771.17;218983;1277;22573;-69
2022/03/12 20:51:04;;;;;;;165.90;65.80;;;;;;;-1.48;41.82;99769.05;218567;1277;22548;-70
2022/03/12 20:56:29;;;;;;;194.90;75.70;;;;;;;-1.51;42.01;99761.32;218511;1276;22588;-69
2022/03/12 21:01:34;;;;;;;191.10;78.10;;;;;;;-1.56;42.71;99763.77;218554;1276;26206;-71
2022/03/12 21:06:44;;;;;;;163.90;68.70;;;;;;;-1.61;43.54;99764.27;218781;1275;24189;-70
2022/03/12 21:11:49;;;;;;;141.80;59.00;;;;;;;-1.67;44.14;99762.98;220522;1276;22620;-69
2022/03/12 21:17:04;;;;;;;129.40;55.40;;;;;;;-1.71;44.49;99762.14;219014;1276;22619;-70
2022/03/12 21:22:25;;;;;;;135.90;56.30;;;;;;;-1.73;44.78;99759.36;218508;1276;22553;-70
2022/03/12 21:27:27;;;;;;;147.90;59.50;;;;;;;-1.76;45.22;99757.67;218704;1276;23079;-71
2022/03/12 21:32:30;;;;;;;151.80;61.80;;;;;;;-1.80;45.52;99755.31;220494;1277;22583;-70
2022/03/12 21:37:32;;;;;;;169.70;65.60;;;;;;;-1.85;45.71;99760.98;218550;1277;25374;-70
2022/03/12 21:42:37;;;;;;;150.20;59.40;;;;;;;-1.88;45.77;99763.94;218513;1277;25434;-69
2022/03/12 21:47:43;;;;;;;147.40;56.70;;;;;;;-1.91;45.59;99760.11;218562;1277;25555;-70
2022/03/12 21:52:47;;;;;;;125.40;52.80;;;;;;;-1.93;45.29;99756.27;218527;1276;22634;-69
2022/03/12 21:57:51;;;;;;;118.30;48.40;;;;;;;-1.94;45.09;99753.80;218475;1277;25408;-70
2022/03/12 22:02:56;;;;;;;113.80;44.10;;;;;;;-1.95;44.85;99750.89;218558;1277;24261;-70
2022/03/12 22:08:03;;;;;;;115.60;45.30;;;;;;;-1.97;44.54;99742.94;220104;1276;25435;-69
2022/03/12 22:13:17;;;;;;;122.30;47.30;;;;;;;-2.00;44.67;99747.86;220525;1277;22559;-69
2022/03/12 22:18:21;;;;;;;;;;;;;;;-2.05;45.08;99746.51;220590;1275;24250;-69
2022/03/12 22:23:24;;;;;;;129.40;50.00;;;;;;;-2.08;45.68;99747.27;218511;1276;25505;-70
2022/03/12 22:28:30;;;;;;;137.70;54.60;;;;;;;-2.15;46.30;99746.70;218593;1277;24904;-70
2022/03/12 22:33:32;;;;;;;138.40;57.30;;;;;;;-2.28;46.84;99747.39;218541;1276;25576;-69
2022/03/12 22:38:39;;;;;;;147.50;60.30;;;;;;;-2.40;47.02;99748.46;218558;1277;22608;-69
2022/03/12 22:43:42;;;;;;;148.40;59.20;;;;;;;-2.52;47.25;99741.14;218592;1277;24351;-69
2022/03/12 22:48:44;;;;;;;137.50;54.40;;;;;;;-2.63;47.61;99737.05;218399;1276;22817;-68
2022/03/12 22:53:48;;;;;;;126.70;52.10;;;;;;;-2.75;47.88;99730.09;218479;1276;22569;-69
2022/03/12 22:59:03;;;;;;;134.10;53.50;;;;;;;-2.84;48.20;99725.88;218876;1277;23398;-70
2022/03/12 23:10:01;;;;;;;144.80;56.80;;;;;;;-3.05;49.13;99712.42;218396;1276;22624;-69
2022/03/12 23:15:09;;;;;;;140.20;56.20;;;;;;;-3.04;49.34;99714.30;218730;1275;22572;-70
2022/03/12 23:20:15;;;;;;;150.40;59.50;;;;;;;-3.05;49.44;99713.15;218491;1277;22614;-69
2022/03/12 23:25:20;;;;;;;159.30;60.20;;;;;;;-3.05;49.61;99715.77;218546;1276;23910;-69
2022/03/12 23:30:25;;;;;;;137.00;52.80;;;;;;;-3.02;50.22;99717.21;218506;1277;23747;-69
2022/03/12 23:35:30;;;;;;;173.60;67.30;;;;;;;-3.01;50.71;99720.35;218580;1277;22596;-69
2022/03/12 23:40:35;;;;;;;171.50;65.30;;;;;;;-3.02;50.69;99718.20;218676;1277;25823;-70
2022/03/12 23:45:37;;;;;;;170.40;64.60;;;;;;;-3.03;50.66;99718.20;218857;1276;24139;-69
2022/03/12 23:50:43;;;;;;;163.30;65.50;;;;;;;-3.04;50.98;99723.20;218434;1276;24436;-68
2022/03/12 23:55:46;;;;;;;177.00;68.40;;;;;;;-3.07;51.54;99722.11;218540;1274;24351;-69
